Time;durP1;ratioP1;P1;durP2;ratioP2;P2;SDS_P1;SDS_P2;PMS_P1;PMS_P2;Temp;Humidity;BMP_temperature;BMP_pressure;BME280_temperature;BME280_humidity;BME280_pressure;Samples;Min_cycle;Max_cycle;Signal;HPM_P1;HPM_P2
2021/12/20 00:01:57;;;;;;;22.33;5.55;;;7.90;72.40;;;;;;4975717;28;20137;-74
2021/12/20 00:04:23;;;;;;;21.23;3.45;;;7.90;72.30;;;;;;4993397;28;20042;-73
2021/12/20 00:06:48;;;;;;;22.58;4.20;;;7.90;72.30;;;;;;4984746;28;20102;-74
2021/12/20 00:09:15;;;;;;;21.02;3.00;;;7.80;72.20;;;;;;4975625;28;20043;-74
2021/12/20 00:11:41;;;;;;;16.77;3.72;;;7.90;72.30;;;;;;4980402;28;20047;-74
2021/12/20 00:14:07;;;;;;;21.08;3.80;;;7.90;72.40;;;;;;4975473;28;20470;-74
2021/12/20 00:16:33;;;;;;;19.55;3.58;;;7.90;72.40;;;;;;4978264;28;20053;-74
2021/12/20 00:18:59;;;;;;;18.60;3.88;;;7.80;72.50;;;;;;4972674;28;20046;-74
2021/12/20 00:21:24;;;;;;;16.00;3.78;;;7.80;72.50;;;;;;4990914;28;20121;-74
2021/12/20 00:23:50;;;;;;;20.75;3.30;;;7.80;72.60;;;;;;4959524;28;20106;-74
2021/12/20 00:26:16;;;;;;;15.20;3.50;;;7.80;72.40;;;;;;4982174;28;20069;-74
2021/12/20 00:28:41;;;;;;;16.42;3.70;;;7.80;72.40;;;;;;4986277;28;20082;-74
2021/12/20 00:31:07;;;;;;;13.30;2.78;;;7.80;72.30;;;;;;4975249;28;20475;-74
2021/12/20 00:33:34;;;;;;;11.30;2.90;;;7.80;72.30;;;;;;4978695;28;20483;-73
2021/12/20 00:36:04;;;;;;;19.65;3.22;;;7.80;72.40;;;;;;4983632;28;20038;-74
2021/12/20 00:41:14;;;;;;;15.52;3.05;;;7.80;72.70;;;;;;4976198;28;20174;-74
2021/12/20 00:43:39;;;;;;;14.35;4.00;;;7.70;72.50;;;;;;4958550;28;20125;-74
2021/12/20 00:46:05;;;;;;;13.85;3.70;;;7.80;72.50;;;;;;4982162;28;20038;-74
2021/12/20 00:48:31;;;;;;;14.23;2.70;;;7.80;72.60;;;;;;4986202;28;20145;-74
2021/12/20 00:50:56;;;;;;;14.27;3.72;;;7.70;72.60;;;;;;4978735;28;20039;-74
2021/12/20 00:53:22;;;;;;;13.70;2.40;;;7.70;72.60;;;;;;4986304;28;20043;-74
2021/12/20 00:55:48;;;;;;;10.20;2.63;;;7.70;72.80;;;;;;4985633;28;20086;-74
2021/12/20 00:58:14;;;;;;;13.05;2.90;;;7.70;72.80;;;;;;4980061;28;20031;-74
2021/12/20 01:00:47;;;;;;;12.93;3.05;;;7.70;72.90;;;;;;4974926;28;20096;-74
2021/12/20 01:03:14;;;;;;;13.93;3.35;;;7.70;72.90;;;;;;4977714;28;20039;-74
2021/12/20 01:05:40;;;;;;;16.85;3.75;;;7.60;72.90;;;;;;4984410;28;20054;-74
2021/12/20 01:08:08;;;;;;;19.98;3.55;;;7.70;72.90;;;;;;4974686;28;20042;-74
2021/12/20 01:10:36;;;;;;;15.02;3.22;;;7.70;72.80;;;;;;4977875;28;20077;-74
2021/12/20 01:13:02;;;;;;;19.75;3.67;;;7.60;72.80;;;;;;4994080;28;20125;-73
2021/12/20 01:15:32;;;;;;;13.38;4.03;;;7.60;72.90;;;;;;4992367;28;20077;-74
2021/12/20 01:17:59;;;;;;;13.32;2.72;;;7.60;72.90;;;;;;4997218;28;20065;-74
2021/12/20 01:20:25;;;;;;;15.13;4.00;;;7.60;72.90;;;;;;4988936;28;20066;-74
2021/12/20 01:22:51;;;;;;;11.70;2.55;;;7.60;72.90;;;;;;4979430;28;20042;-74
2021/12/20 01:25:18;;;;;;;14.25;3.35;;;7.60;73.00;;;;;;4992745;28;20042;-74
2021/12/20 01:27:44;;;;;;;10.93;2.97;;;7.60;73.10;;;;;;4981889;28;20046;-74
2021/12/20 01:30:12;;;;;;;17.10;3.15;;;7.60;73.20;;;;;;4980180;28;20039;-74
2021/12/20 01:32:38;;;;;;;14.07;2.75;;;7.50;73.20;;;;;;4984349;28;20380;-74
2021/12/20 01:35:05;;;;;;;18.25;3.72;;;7.60;73.30;;;;;;4995752;28;20089;-74
2021/12/20 01:37:31;;;;;;;11.18;3.08;;;7.60;73.40;;;;;;4991699;28;20042;-74
2021/12/20 01:39:59;;;;;;;13.85;2.78;;;7.60;73.40;;;;;;4998511;28;20360;-74
2021/12/20 01:42:27;;;;;;;15.00;2.85;;;7.60;73.50;;;;;;4990101;28;20047;-74
2021/12/20 01:44:56;;;;;;;17.95;3.47;;;7.60;73.50;;;;;;4982121;28;20489;-74
2021/12/20 01:47:23;;;;;;;13.20;2.60;;;7.50;73.40;;;;;;4993654;28;20052;-74
2021/12/20 01:50:02;;;;;;;15.05;2.85;;;7.50;73.40;;;;;;4997608;28;20397;-74
2021/12/20 01:52:30;;;;;;;15.63;3.33;;;7.50;73.40;;;;;;4985984;28;20043;-74
2021/12/20 01:54:56;;;;;;;14.27;2.75;;;7.50;73.30;;;;;;4992597;28;20081;-73
2021/12/20 01:57:23;;;;;;;13.38;2.85;;;7.50;73.30;;;;;;4989584;28;20430;-73
2021/12/20 01:59:49;;;;;;;13.80;3.03;;;7.50;73.40;;;;;;4979059;28;20502;-73
2021/12/20 02:02:15;;;;;;;13.20;2.95;;;7.50;73.50;;;;;;4990728;28;20046;-73
2021/12/20 02:04:48;;;;;;;18.48;3.35;;;7.50;73.50;;;;;;4989069;28;20065;-73
2021/12/20 02:07:32;;;;;;;15.23;3.38;;;7.50;73.50;;;;;;4990634;28;20045;-73
2021/12/20 02:09:58;;;;;;;10.82;2.90;;;7.50;73.50;;;;;;4979756;28;20051;-74
2021/12/20 02:12:23;;;;;;;17.98;3.47;;;7.50;73.50;;;;;;4993130;28;20482;-73
2021/12/20 02:14:50;;;;;;;16.63;2.83;;;7.50;73.40;;;;;;4987727;28;20059;-74
2021/12/20 02:17:16;;;;;;;14.85;2.70;;;7.50;73.50;;;;;;4980501;28;20057;-73
2021/12/20 02:19:41;;;;;;;13.25;2.63;;;7.50;73.50;;;;;;4990766;28;20042;-73
2021/12/20 02:22:07;;;;;;;18.75;3.45;;;7.50;73.40;;;;;;4983366;28;20042;-73
2021/12/20 02:24:33;;;;;;;15.35;3.15;;;7.50;73.30;;;;;;4988201;28;20030;-73
2021/12/20 02:26:58;;;;;;;13.68;2.70;;;7.50;73.60;;;;;;4979667;28;20486;-73
2021/12/20 02:29:40;;;;;;;14.40;3.35;;;7.50;73.00;;;;;;4986204;28;20475;-73
2021/12/20 02:37:34;;;;;;;12.88;2.75;;;7.50;72.30;;;;;;4979303;28;20466;-73
2021/12/20 02:40:00;;;;;;;17.48;2.60;;;7.40;72.60;;;;;;4990337;28;20078;-74
2021/12/20 02:42:32;;;;;;;12.35;2.25;;;7.40;72.00;;;;;;4989830;28;20084;-73
2021/12/20 02:45:36;;;;;;;12.48;2.30;;;7.40;72.00;;;;;;4992530;28;20457;-74
2021/12/20 02:47:50;;;;;;;15.20;2.60;;;7.40;72.10;;;;;;4987557;28;20073;-74
2021/12/20 02:50:16;;;;;;;10.75;2.05;;;7.40;72.20;;;;;;4993788;28;20398;-74
2021/12/20 02:52:42;;;;;;;11.70;2.30;;;7.40;72.10;;;;;;4993250;28;20038;-73
2021/12/20 02:55:09;;;;;;;14.85;2.85;;;7.40;71.90;;;;;;4979389;28;20043;-73
2021/12/20 02:57:36;;;;;;;15.32;2.85;;;7.40;71.70;;;;;;4978259;28;20053;-73
2021/12/20 03:00:04;;;;;;;17.33;4.47;;;7.40;71.60;;;;;;4994050;28;20084;-73
2021/12/20 03:02:29;;;;;;;12.18;2.50;;;7.40;71.40;;;;;;4977943;28;20062;-73
2021/12/20 03:04:55;;;;;;;8.07;2.40;;;7.40;71.80;;;;;;4988440;28;20039;-74
2021/12/20 03:07:25;;;;;;;16.52;2.45;;;7.40;71.40;;;;;;4976690;28;20066;-73
2021/12/20 03:09:56;;;;;;;10.40;2.28;;;7.40;72.00;;;;;;4995521;28;20402;-74
2021/12/20 03:12:25;;;;;;;12.55;2.58;;;7.40;71.80;;;;;;4988029;28;20070;-73
2021/12/20 03:14:55;;;;;;;10.30;2.22;;;7.40;72.00;;;;;;4978828;28;20070;-73
2021/12/20 03:17:20;;;;;;;16.10;2.75;;;7.40;72.00;;;;;;4994221;28;20050;-74
2021/12/20 03:19:46;;;;;;;11.15;2.65;;;7.40;72.20;;;;;;4989879;28;20129;-74
2021/12/20 03:22:12;;;;;;;14.98;3.15;;;7.40;72.50;;;;;;4978406;28;20035;-74
2021/12/20 03:24:37;;;;;;;10.32;2.00;;;7.40;71.90;;;;;;4977346;28;20401;-73
2021/12/20 03:27:04;;;;;;;15.05;2.88;;;7.40;71.80;;;;;;4982785;28;20047;-73
2021/12/20 03:29:30;;;;;;;12.50;2.75;;;7.40;71.70;;;;;;4994842;28;20048;-73
2021/12/20 03:31:55;;;;;;;12.73;2.38;;;7.40;71.10;;;;;;4976662;28;20054;-73
2021/12/20 03:34:21;;;;;;;12.93;1.98;;;7.40;70.70;;;;;;4982631;28;20130;-74
2021/12/20 03:36:47;;;;;;;9.35;1.90;;;7.40;70.60;;;;;;4994385;28;20039;-73
2021/12/20 03:39:13;;;;;;;9.80;1.92;;;7.30;70.40;;;;;;4960052;28;20130;-74
2021/12/20 03:41:40;;;;;;;8.35;1.60;;;7.40;70.80;;;;;;4979905;28;20042;-74
2021/12/20 03:44:06;;;;;;;16.35;2.88;;;7.30;71.10;;;;;;4986380;28;20084;-74
2021/12/20 03:46:33;;;;;;;11.93;2.40;;;7.30;71.40;;;;;;4977040;28;20505;-73
2021/12/20 03:48:59;;;;;;;10.35;2.15;;;7.30;71.50;;;;;;4987903;28;20398;-74
2021/12/20 03:51:25;;;;;;;11.77;2.50;;;7.40;71.80;;;;;;4978102;28;20061;-73
2021/12/20 03:53:50;;;;;;;11.75;2.13;;;7.40;72.20;;;;;;4984431;28;20050;-74
2021/12/20 03:56:16;;;;;;;15.02;2.53;;;7.30;72.30;;;;;;4963824;28;20042;-74
2021/12/20 03:58:42;;;;;;;7.97;2.25;;;7.40;72.50;;;;;;4976729;28;20051;-74
2021/12/20 04:01:10;;;;;;;9.38;2.15;;;7.40;72.30;;;;;;4984828;28;20050;-73
2021/12/20 04:03:37;;;;;;;11.55;2.53;;;7.40;72.30;;;;;;4992514;28;20047;-73
2021/12/20 04:06:12;;;;;;;8.27;1.65;;;7.40;72.30;;;;;;4977541;28;20042;-73
2021/12/20 04:08:38;;;;;;;;;;;7.40;72.40;;;;;;4985274;28;20038;-73
2021/12/20 04:11:04;;;;;;;11.27;2.53;;;7.40;72.50;;;;;;4958384;28;20338;-73
2021/12/20 04:13:31;;;;;;;14.40;2.42;;;7.30;72.50;;;;;;4982863;28;20077;-73
2021/12/20 04:15:56;;;;;;;9.75;1.92;;;7.40;72.50;;;;;;4978493;28;20130;-73
2021/12/20 04:18:24;;;;;;;12.40;2.58;;;7.40;72.40;;;;;;4981074;28;20466;-73
2021/12/20 04:20:49;;;;;;;9.30;1.95;;;7.40;72.60;;;;;;4992153;28;20097;-73
2021/12/20 04:23:15;;;;;;;13.15;2.47;;;7.40;72.60;;;;;;4988816;28;20474;-73
2021/12/20 04:25:41;;;;;;;7.63;2.03;;;7.40;72.20;;;;;;4985929;28;20054;-73
2021/12/20 04:28:07;;;;;;;9.15;1.88;;;7.30;71.90;;;;;;4991117;28;20474;-73
2021/12/20 04:30:33;;;;;;;7.63;1.58;;;7.40;72.10;;;;;;4981704;28;20049;-73
2021/12/20 04:32:59;;;;;;;18.83;3.17;;;7.40;72.10;;;;;;4989162;28;20042;-73
2021/12/20 04:35:26;;;;;;;7.50;1.73;;;7.40;72.10;;;;;;4989825;28;20401;-73
2021/12/20 04:37:53;;;;;;;11.18;2.45;;;7.30;71.60;;;;;;4992792;28;20076;-73
2021/12/20 04:40:21;;;;;;;7.85;2.20;;;7.30;71.80;;;;;;4985131;28;20421;-73
2021/12/20 04:42:50;;;;;;;12.35;2.13;;;7.30;72.20;;;;;;4976115;28;20055;-73
2021/12/20 04:45:16;;;;;;;11.38;2.53;;;7.30;72.50;;;;;;4990351;28;20030;-73
2021/12/20 04:47:42;;;;;;;8.60;1.80;;;7.30;72.70;;;;;;4994375;28;20042;-73
2021/12/20 04:50:09;;;;;;;10.10;2.13;;;7.40;72.80;;;;;;4981087;28;20387;-73
2021/12/20 04:52:36;;;;;;;8.68;1.70;;;7.30;72.70;;;;;;4975904;28;21629;-72
2021/12/20 04:55:03;;;;;;;8.95;1.80;;;7.40;72.80;;;;;;4977787;28;20046;-73
2021/12/20 04:57:29;;;;;;;15.65;2.20;;;7.40;72.80;;;;;;4991886;28;20105;-73
2021/12/20 04:59:55;;;;;;;8.45;2.10;;;7.30;72.60;;;;;;4983784;28;20438;-73
2021/12/20 05:02:20;;;;;;;13.68;2.75;;;7.30;72.40;;;;;;4981412;28;20231;-73
2021/12/20 05:04:46;;;;;;;6.70;1.58;;;7.30;72.00;;;;;;4978520;28;20042;-73
2021/12/20 05:07:11;;;;;;;7.60;1.50;;;7.30;71.30;;;;;;4980901;28;20042;-73
2021/12/20 05:09:39;;;;;;;12.40;2.30;;;7.30;71.30;;;;;;4976019;28;20042;-73
2021/12/20 05:12:14;;;;;;;10.40;1.73;;;7.30;71.60;;;;;;4967118;28;20086;-73
2021/12/20 05:14:44;;;;;;;5.68;1.25;;;7.30;71.70;;;;;;4975640;28;20042;-73
2021/12/20 05:17:12;;;;;;;7.28;1.50;;;7.30;71.00;;;;;;4975885;28;20131;-73
2021/12/20 05:19:40;;;;;;;6.40;1.55;;;7.20;70.60;;;;;;4982701;28;20047;-74
2021/12/20 05:22:06;;;;;;;5.35;1.48;;;7.20;70.90;;;;;;4978221;28;20039;-73
2021/12/20 05:24:32;;;;;;;7.28;1.75;;;7.20;71.30;;;;;;4979400;28;20084;-73
2021/12/20 05:26:57;;;;;;;9.07;2.55;;;7.20;72.10;;;;;;4984541;28;20054;-73
2021/12/20 05:29:24;;;;;;;8.32;1.58;;;7.20;72.00;;;;;;4975261;28;20386;-73
2021/12/20 05:31:50;;;;;;;5.43;1.55;;;7.30;72.30;;;;;;4981893;28;20045;-73
2021/12/20 05:34:17;;;;;;;10.63;2.03;;;7.20;72.40;;;;;;4975772;28;20125;-73
2021/12/20 05:36:43;;;;;;;7.43;1.92;;;7.20;72.40;;;;;;4979249;28;20050;-73
2021/12/20 05:39:09;;;;;;;6.65;1.52;;;7.30;72.50;;;;;;4984904;28;20052;-73
2021/12/20 05:41:34;;;;;;;13.43;1.88;;;7.30;72.60;;;;;;4982061;28;20050;-73
2021/12/20 05:44:00;;;;;;;8.38;1.60;;;7.20;72.50;;;;;;4975568;28;20075;-73
2021/12/20 05:46:26;;;;;;;7.68;1.52;;;7.20;71.60;;;;;;4976640;28;20046;-74
2021/12/20 05:48:51;;;;;;;6.82;1.85;;;7.20;71.50;;;;;;4974411;28;20562;-73
2021/12/20 05:51:17;;;;;;;5.07;1.33;;;7.20;72.00;;;;;;4977632;28;20034;-73
2021/12/20 05:53:42;;;;;;;5.70;1.30;;;7.20;71.90;;;;;;4976057;28;20478;-73
2021/12/20 05:56:08;;;;;;;5.82;1.42;;;7.30;71.70;;;;;;4975471;28;20078;-72
2021/12/20 05:58:34;;;;;;;6.88;1.48;;;7.10;71.60;;;;;;4976558;28;20058;-73
2021/12/20 06:01:00;;;;;;;8.20;1.48;;;7.10;71.80;;;;;;4981083;28;20558;-73
2021/12/20 06:03:26;;;;;;;7.82;1.85;;;7.20;72.00;;;;;;4984763;28;20402;-73
2021/12/20 06:06:11;;;;;;;3.80;1.13;;;7.20;72.20;;;;;;4977627;28;20509;-73
2021/12/20 06:08:37;;;;;;;9.15;2.00;;;7.20;72.30;;;;;;4966112;28;20059;-73
2021/12/20 06:11:03;;;;;;;7.05;1.65;;;7.20;72.40;;;;;;4977719;28;20092;-73
2021/12/20 06:13:28;;;;;;;6.93;1.60;;;7.20;72.30;;;;;;4996885;28;20422;-73
2021/12/20 06:15:54;;;;;;;8.32;1.13;;;7.20;72.20;;;;;;4982088;28;20106;-73
2021/12/20 06:18:20;;;;;;;12.52;1.70;;;7.10;72.30;;;;;;4980946;28;20418;-74
2021/12/20 06:20:45;;;;;;;9.10;1.50;;;7.20;72.20;;;;;;4970822;28;20050;-73
2021/12/20 06:23:12;;;;;;;8.15;2.08;;;7.20;71.80;;;;;;4961989;28;20038;-73
2021/12/20 06:25:38;;;;;;;4.53;1.23;;;7.20;71.80;;;;;;4986680;28;20042;-72
2021/12/20 06:28:03;;;;;;;5.93;1.40;;;7.20;72.00;;;;;;4991867;28;20034;-73
2021/12/20 06:30:29;;;;;;;7.40;1.50;;;7.20;72.20;;;;;;4996782;28;20397;-73
2021/12/20 06:32:55;;;;;;;11.73;1.70;;;7.20;72.20;;;;;;4993966;28;20041;-74
2021/12/20 06:35:21;;;;;;;6.38;1.63;;;7.10;72.10;;;;;;4994759;28;20042;-73
2021/12/20 06:37:59;;;;;;;6.32;1.48;;;7.10;72.10;;;;;;4992814;28;20486;-73
2021/12/20 06:40:26;;;;;;;10.52;2.25;;;7.20;72.30;;;;;;4995002;28;20054;-73
2021/12/20 06:42:51;;;;;;;5.07;1.13;;;7.10;72.00;;;;;;4982986;28;20050;-73
2021/12/20 06:45:17;;;;;;;13.10;2.00;;;7.10;71.70;;;;;;4977163;28;20050;-73
2021/12/20 06:47:43;;;;;;;6.05;1.45;;;7.10;71.70;;;;;;4990528;28;20042;-74
2021/12/20 06:50:08;;;;;;;4.88;1.20;;;7.10;71.80;;;;;;4978747;28;20046;-74
2021/12/20 06:52:34;;;;;;;7.93;1.55;;;7.10;72.10;;;;;;4995310;28;20433;-74
2021/12/20 06:55:00;;;;;;;8.05;1.52;;;7.10;72.40;;;;;;4996430;28;20069;-73
2021/12/20 06:57:25;;;;;;;6.10;1.58;;;7.10;72.60;;;;;;4993829;28;20038;-73
2021/12/20 06:59:51;;;;;;;5.47;1.45;;;7.10;72.70;;;;;;4996150;28;20046;-74
2021/12/20 07:02:18;;;;;;;7.15;1.38;;;7.10;72.90;;;;;;4989588;28;20039;-74
2021/12/20 07:04:43;;;;;;;6.82;1.23;;;7.10;73.10;;;;;;4959302;28;20054;-74
2021/12/20 07:07:09;;;;;;;8.98;1.50;;;7.10;73.20;;;;;;4977623;28;20043;-73
2021/12/20 07:09:35;;;;;;;7.10;1.40;;;7.10;73.30;;;;;;4976178;28;20514;-73
2021/12/20 07:12:02;;;;;;;5.68;1.60;;;7.10;73.30;;;;;;4977675;28;20043;-76
2021/12/20 07:14:28;;;;;;;5.68;1.60;;;7.10;73.50;;;;;;4995986;28;20068;-74
2021/12/20 07:16:57;;;;;;;5.90;1.45;;;7.10;73.50;;;;;;4995002;28;20050;-74
2021/12/20 07:19:24;;;;;;;4.45;1.55;;;7.10;73.40;;;;;;4985889;28;20074;-74
2021/12/20 07:21:50;;;;;;;7.30;1.40;;;7.10;73.10;;;;;;4970718;28;20528;-74
2021/12/20 07:24:15;;;;;;;8.65;1.27;;;7.00;73.10;;;;;;4961002;28;20082;-74
2021/12/20 07:26:42;;;;;;;5.65;1.23;;;7.40;73.50;;;;;;4976538;28;20129;-74
2021/12/20 07:29:08;;;;;;;5.45;1.55;;;7.00;73.40;;;;;;4961244;28;20117;-75
2021/12/20 07:31:34;;;;;;;7.97;1.55;;;7.00;73.50;;;;;;4958807;28;20089;-74
2021/12/20 07:34:00;;;;;;;3.55;1.00;;;7.00;73.50;;;;;;4990955;28;20073;-74
2021/12/20 07:36:25;;;;;;;6.47;1.33;;;7.00;73.60;;;;;;4980539;28;20394;-74
2021/12/20 07:38:51;;;;;;;8.23;1.45;;;7.00;73.70;;;;;;4960188;28;20451;-74
2021/12/20 07:41:22;;;;;;;7.97;1.35;;;7.00;73.20;;;;;;4976168;28;20057;-75
2021/12/20 07:43:49;;;;;;;6.03;1.48;;;7.00;73.00;;;;;;4987449;28;20046;-74
2021/12/20 07:46:15;;;;;;;6.25;1.15;;;6.90;73.10;;;;;;4995495;28;20038;-74
2021/12/20 07:48:40;;;;;;;5.53;1.40;;;6.90;73.20;;;;;;4991749;28;20437;-73
2021/12/20 07:51:06;;;;;;;4.63;1.35;;;6.90;73.30;;;;;;4992255;28;20058;-74
2021/12/20 07:53:32;;;;;;;6.43;1.00;;;6.90;73.40;;;;;;4974477;28;20050;-74
2021/12/20 07:55:58;;;;;;;6.75;1.20;;;6.80;73.40;;;;;;4995054;28;20043;-74
2021/12/20 07:58:24;;;;;;;3.63;1.00;;;6.80;73.50;;;;;;4993641;28;20398;-73
2021/12/20 08:00:50;;;;;;;5.20;1.27;;;6.80;73.50;;;;;;4989851;28;20046;-74
2021/12/20 08:03:16;;;;;;;5.55;1.52;;;6.80;73.60;;;;;;4980436;28;20038;-73
2021/12/20 08:05:42;;;;;;;8.93;1.35;;;6.80;73.60;;;;;;4994204;28;20505;-74
2021/12/20 08:08:08;;;;;;;5.75;1.85;;;6.80;73.70;;;;;;4985175;28;20125;-73
2021/12/20 08:10:34;;;;;;;9.02;1.88;;;6.70;73.60;;;;;;4976300;28;20042;-74
2021/12/20 08:12:59;;;;;;;8.02;1.60;;;6.80;74.10;;;;;;4975988;28;20047;-74
2021/12/20 08:15:26;;;;;;;11.48;4.20;;;6.70;73.50;;;;;;4993147;28;20066;-74
2021/12/20 08:17:53;;;;;;;8.95;2.53;;;6.70;73.10;;;;;;4994753;28;20482;-73
2021/12/20 08:20:19;;;;;;;9.85;2.70;;;6.60;72.70;;;;;;4993142;28;20035;-74
2021/12/20 08:22:44;;;;;;;9.35;2.72;;;6.60;72.70;;;;;;4983093;28;20482;-74
2021/12/20 08:25:10;;;;;;;10.35;2.70;;;6.60;72.80;;;;;;4990291;28;20121;-74
2021/12/20 08:27:36;;;;;;;8.25;3.33;;;6.60;73.00;;;;;;4994738;28;20081;-73
2021/12/20 08:30:03;;;;;;;10.00;2.63;;;6.50;73.00;;;;;;4992896;28;20579;-74
2021/12/20 08:32:29;;;;;;;7.28;2.50;;;6.50;73.00;;;;;;4975539;28;20038;-74
2021/12/20 08:34:55;;;;;;;11.02;4.28;;;6.50;73.00;;;;;;4980286;28;20043;-73
2021/12/20 08:37:21;;;;;;;10.65;4.10;;;6.50;72.90;;;;;;4975055;28;20050;-74
2021/12/20 08:39:46;;;;;;;8.57;2.28;;;6.50;72.70;;;;;;4976039;28;20039;-74
2021/12/20 08:42:12;;;;;;;6.78;2.55;;;6.40;72.20;;;;;;4975882;28;20149;-74
2021/12/20 08:44:38;;;;;;;7.38;2.40;;;6.40;72.30;;;;;;4985445;28;20039;-74
2021/12/20 08:47:04;;;;;;;7.43;1.80;;;6.30;72.30;;;;;;4984187;28;20379;-74
2021/12/20 08:49:30;;;;;;;4.95;1.85;;;6.30;72.60;;;;;;4976027;28;20037;-74
2021/12/20 08:51:56;;;;;;;5.80;1.65;;;6.30;72.60;;;;;;4976182;28;20035;-73
2021/12/20 08:54:27;;;;;;;8.20;1.88;;;6.30;72.60;;;;;;4977111;28;20038;-73
2021/12/20 08:56:53;;;;;;;6.05;1.73;;;6.30;72.50;;;;;;4960345;28;20047;-73
2021/12/20 08:59:19;;;;;;;6.63;1.98;;;6.30;72.40;;;;;;4958864;28;20097;-74
2021/12/20 09:01:45;;;;;;;8.57;1.70;;;6.20;72.10;;;;;;4974975;28;20546;-74
2021/12/20 09:04:11;;;;;;;7.40;1.85;;;6.20;71.80;;;;;;4979674;28;20089;-73
2021/12/20 09:06:42;;;;;;;8.85;1.95;;;6.20;71.70;;;;;;4993768;28;20046;-73
2021/12/20 09:09:10;;;;;;;10.70;2.15;;;6.20;71.60;;;;;;4990733;28;20049;-73
2021/12/20 09:11:36;;;;;;;9.60;2.00;;;6.10;71.40;;;;;;4976818;28;20401;-73
2021/12/20 09:14:02;;;;;;;8.23;2.67;;;6.10;71.20;;;;;;4992830;28;20046;-73
2021/12/20 09:16:27;;;;;;;11.40;2.13;;;6.10;71.10;;;;;;4992798;28;20134;-73
2021/12/20 09:18:53;;;;;;;9.15;2.00;;;6.00;70.90;;;;;;4984346;28;20058;-73
2021/12/20 09:21:19;;;;;;;10.25;2.47;;;6.00;70.80;;;;;;4980957;28;20042;-73
2021/12/20 09:23:44;;;;;;;8.50;1.88;;;5.90;70.80;;;;;;4989550;28;20054;-74
2021/12/20 09:26:10;;;;;;;8.98;2.30;;;5.90;70.90;;;;;;4974012;28;20066;-73
2021/12/20 09:28:36;;;;;;;14.75;2.88;;;5.80;71.00;;;;;;4987700;28;20049;-73
2021/12/20 09:31:04;;;;;;;8.77;2.13;;;5.80;71.00;;;;;;4974540;28;20498;-73
2021/12/20 09:33:30;;;;;;;11.13;2.53;;;5.80;71.00;;;;;;4971774;28;20061;-73
2021/12/20 09:35:55;;;;;;;13.00;2.88;;;5.80;70.90;;;;;;4976633;28;20042;-72
2021/12/20 09:38:22;;;;;;;10.48;2.70;;;5.80;70.90;;;;;;4977142;28;20050;-73
2021/12/20 09:43:40;;;;;;;15.95;2.80;;;5.70;71.00;;;;;;4974642;28;20054;-73
2021/12/20 09:46:07;;;;;;;15.40;3.28;;;5.70;71.10;;;;;;4975317;28;20057;-73
2021/12/20 09:48:35;;;;;;;20.52;3.25;;;5.70;71.20;;;;;;4974460;28;20089;-73
2021/12/20 09:51:02;;;;;;;16.17;3.40;;;5.70;71.30;;;;;;4982716;28;20038;-72
2021/12/20 09:53:27;;;;;;;13.55;2.70;;;5.70;71.50;;;;;;4993723;28;20046;-72
2021/12/20 09:55:54;;;;;;;12.30;3.17;;;5.70;71.60;;;;;;4987202;28;20169;-74
2021/12/20 09:58:22;;;;;;;16.85;3.90;;;5.80;71.80;;;;;;4988739;28;20043;-73
2021/12/20 10:00:48;;;;;;;20.70;3.53;;;5.80;71.90;;;;;;4979801;28;20051;-74
2021/12/20 10:03:18;;;;;;;19.83;3.65;;;5.80;72.00;;;;;;4977805;28;20350;-74
2021/12/20 10:05:44;;;;;;;20.65;3.65;;;5.80;72.00;;;;;;4978754;28;20038;-73
2021/12/20 10:08:15;;;;;;;18.75;3.00;;;5.80;72.10;;;;;;4981589;28;20145;-73
2021/12/20 10:10:49;;;;;;;21.90;3.17;;;5.90;72.60;;;;;;4987544;28;20051;-72
2021/12/20 10:13:29;;;;;;;18.95;3.83;;;5.90;72.40;;;;;;4988624;28;20042;-73
2021/12/20 10:15:56;;;;;;;21.60;4.82;;;5.90;72.50;;;;;;4978436;28;20061;-73
2021/12/20 10:18:23;;;;;;;24.35;3.88;;;6.00;72.60;;;;;;4977474;28;20047;-73
2021/12/20 10:20:59;;;;;;;20.55;4.10;;;6.00;72.60;;;;;;4979127;28;20509;-74
2021/12/20 10:23:31;;;;;;;22.35;4.25;;;6.00;72.70;;;;;;4977611;28;20047;-74
2021/12/20 10:26:04;;;;;;;30.35;5.35;;;6.10;72.80;;;;;;4981414;28;20043;-74
2021/12/20 10:28:36;;;;;;;25.98;4.85;;;6.10;72.80;;;;;;4978502;28;20383;-74
2021/12/20 10:31:19;;;;;;;22.38;4.88;;;6.20;72.90;;;;;;4977505;28;20047;-73
2021/12/20 10:33:54;;;;;;;29.98;7.07;;;6.20;72.90;;;;;;4990853;28;20382;-73
2021/12/20 10:36:20;;;;;;;26.23;7.85;;;6.20;72.90;;;;;;4988607;28;20042;-73
2021/12/20 10:38:56;;;;;;;23.02;5.97;;;6.20;72.80;;;;;;4977392;28;20461;-73
2021/12/20 10:41:29;;;;;;;28.08;6.00;;;6.30;72.80;;;;;;4986360;28;20121;-72
2021/12/20 10:43:59;;;;;;;23.77;5.30;;;6.30;72.80;;;;;;4995293;28;20121;-74
2021/12/20 10:46:34;;;;;;;25.15;5.43;;;6.40;72.80;;;;;;4992396;28;20133;-73
2021/12/20 10:49:04;;;;;;;29.10;5.45;;;6.40;72.80;;;;;;4987869;28;20039;-72
2021/12/20 10:51:49;;;;;;;32.80;5.72;;;6.40;72.80;;;;;;4985589;28;20120;-73
2021/12/20 10:54:18;;;;;;;21.27;4.78;;;6.50;72.80;;;;;;4994956;28;20042;-72
2021/12/20 10:56:55;;;;;;;27.92;5.88;;;6.50;72.70;;;;;;4978253;28;20042;-73
2021/12/20 10:59:26;;;;;;;27.17;5.90;;;6.50;72.70;;;;;;4996386;28;20049;-74
2021/12/20 11:04:42;;;;;;;25.50;4.60;;;6.60;72.60;;;;;;4976902;28;20054;-73
2021/12/20 11:09:37;;;;;;;28.38;5.88;;;6.60;72.50;;;;;;4976788;28;20050;-74
2021/12/20 11:12:11;;;;;;;22.27;4.13;;;6.70;72.50;;;;;;4991006;28;20046;-74
2021/12/20 11:14:48;;;;;;;26.17;5.18;;;6.60;72.40;;;;;;4996170;28;20041;-73
2021/12/20 11:17:17;;;;;;;21.85;4.20;;;6.70;72.40;;;;;;4993149;28;20046;-74
2021/12/20 11:19:50;;;;;;;34.67;6.00;;;6.70;72.40;;;;;;4995806;28;20050;-73
2021/12/20 11:22:22;;;;;;;20.40;4.47;;;6.70;72.30;;;;;;4984713;28;20094;-73
2021/12/20 11:25:11;;;;;;;27.73;4.82;;;6.70;72.20;;;;;;4976399;28;20502;-73
2021/12/20 11:27:38;;;;;;;15.02;3.33;;;6.80;72.00;;;;;;4959651;28;20059;-74
2021/12/20 11:30:06;;;;;;;22.75;4.57;;;6.80;72.00;;;;;;4977968;28;20046;-73
2021/12/20 11:32:32;;;;;;;21.13;4.30;;;6.80;72.00;;;;;;4977437;28;20057;-74
2021/12/20 11:34:57;;;;;;;17.95;4.20;;;6.70;71.80;;;;;;4994774;28;20038;-73
2021/12/20 11:37:25;;;;;;;19.00;3.67;;;6.80;71.70;;;;;;4976181;28;20042;-73
2021/12/20 11:39:52;;;;;;;15.63;3.83;;;6.80;71.50;;;;;;4995822;28;20054;-74
2021/12/20 11:42:18;;;;;;;22.15;3.92;;;6.80;71.20;;;;;;4987034;28;20391;-73
2021/12/20 11:44:47;;;;;;;16.17;3.38;;;6.80;71.00;;;;;;4986711;28;20130;-74
2021/12/20 11:47:16;;;;;;;20.23;4.32;;;6.80;70.50;;;;;;4977429;28;20419;-74
2021/12/20 11:49:42;;;;;;;17.35;3.10;;;6.80;70.20;;;;;;4989204;28;20081;-74
2021/12/20 11:52:18;;;;;;;16.70;4.07;;;6.80;70.10;;;;;;4977658;28;20069;-73
2021/12/20 11:54:49;;;;;;;13.00;3.10;;;6.90;69.50;;;;;;4986459;28;20039;-73
2021/12/20 11:57:30;;;;;;;14.90;3.03;;;6.80;69.10;;;;;;4976393;28;20035;-75
2021/12/20 11:59:57;;;;;;;13.40;3.00;;;6.90;68.60;;;;;;4975982;28;20110;-74
2021/12/20 12:02:32;;;;;;;17.77;2.97;;;6.90;68.70;;;;;;4981741;28;20045;-72
2021/12/20 12:05:11;;;;;;;17.00;4.05;;;6.90;68.10;;;;;;4995055;28;20056;-73
2021/12/20 12:07:38;;;;;;;15.93;3.17;;;6.90;67.80;;;;;;4993116;28;20038;-72
2021/12/20 12:10:17;;;;;;;14.95;2.80;;;6.90;67.80;;;;;;4994812;28;20398;-73
2021/12/20 12:12:46;;;;;;;17.58;3.63;;;6.90;67.40;;;;;;4986682;28;20046;-72
2021/12/20 12:15:32;;;;;;;15.32;3.38;;;6.90;67.50;;;;;;4975478;28;20051;-73
2021/12/20 12:18:04;;;;;;;19.77;3.45;;;7.00;67.30;;;;;;4982785;28;20074;-72
2021/12/20 12:20:52;;;;;;;15.32;3.50;;;7.00;67.20;;;;;;4992354;28;20088;-72
2021/12/20 12:23:22;;;;;;;10.90;2.28;;;7.00;66.70;;;;;;4986238;28;20129;-73
2021/12/20 12:25:50;;;;;;;10.98;3.22;;;7.00;66.50;;;;;;4976196;28;20035;-73
2021/12/20 12:28:19;;;;;;;15.98;3.03;;;7.00;66.10;;;;;;4987449;28;20494;-73
2021/12/20 12:31:06;;;;;;;15.65;2.83;;;7.00;66.00;;;;;;4977714;28;20042;-72
2021/12/20 12:33:34;;;;;;;17.00;3.15;;;7.00;65.50;;;;;;4981966;28;20054;-73
2021/12/20 12:36:03;;;;;;;14.15;2.63;;;7.00;65.70;;;;;;4994494;28;20062;-81
2021/12/20 12:38:35;;;;;;;12.68;2.92;;;7.00;65.60;;;;;;4985858;28;20422;-73
2021/12/20 12:41:07;;;;;;;13.85;2.67;;;7.10;65.50;;;;;;4994191;28;20042;-74
2021/12/20 12:43:50;;;;;;;10.68;2.33;;;7.00;65.30;;;;;;4992898;28;20074;-73
2021/12/20 12:46:36;;;;;;;9.27;2.45;;;7.00;64.70;;;;;;4977139;28;20046;-75
2021/12/20 12:49:25;;;;;;;14.25;2.55;;;7.10;64.50;;;;;;4981794;28;20053;-76
2021/12/20 12:51:54;;;;;;;13.18;2.58;;;7.00;64.40;;;;;;4975137;28;20125;-73
2021/12/20 12:54:40;;;;;;;14.05;2.88;;;7.10;64.50;;;;;;4976211;28;20126;-75
2021/12/20 12:57:11;;;;;;;10.40;1.95;;;7.00;64.00;;;;;;4992286;28;20493;-74
2021/12/20 12:59:56;;;;;;;6.60;1.40;;;7.00;64.10;;;;;;4978793;28;20047;-74
2021/12/20 13:02:34;;;;;;;6.22;1.52;;;7.00;61.80;;;;;;4974922;28;20089;-74
2021/12/20 13:05:05;;;;;;;7.13;1.38;;;7.00;60.60;;;;;;4975990;28;20074;-74
2021/12/20 13:07:37;;;;;;;7.65;1.80;;;7.00;60.40;;;;;;4975417;28;20053;-74
2021/12/20 13:10:10;;;;;;;8.05;1.30;;;7.00;60.40;;;;;;4995920;28;20074;-75
2021/12/20 13:17:50;;;;;;;4.68;0.93;;;7.00;58.70;;;;;;4978848;28;20133;-74